Time;durP1;ratioP1;P1;durP2;ratioP2;P2;SDS_P1;SDS_P2;PMS_P1;PMS_P2;Temp;Humidity;BMP_temperature;BMP_pressure;BME280_temperature;BME280_humidity;BME280_pressure;Samples;Min_cycle;Max_cycle;Signal;HPM_P1;HPM_P2
2023/03/31 04:34:12;;;;;;;10.83;5.37;;;9.80;1.00;;;;;;4932553;23;20226;-95
2023/03/31 04:36:41;;;;;;;9.87;4.63;;;9.80;1.00;;;;;;4915420;29;20207;-96
2023/03/31 04:39:09;;;;;;;9.17;4.67;;;9.80;1.00;;;;;;4900795;29;20215;-95
2023/03/31 04:41:36;;;;;;;11.13;4.97;;;9.80;1.00;;;;;;4903485;29;20580;-94
2023/03/31 04:44:03;;;;;;;12.10;4.90;;;9.80;1.00;;;;;;4912186;29;20201;-94
2023/03/31 04:46:30;;;;;;;13.60;4.83;;;9.70;1.00;;;;;;4912747;29;20218;-93
2023/03/31 04:48:58;;;;;;;13.33;5.10;;;9.70;30.60;;;;;;4913748;29;20661;-93
2023/03/31 04:51:26;;;;;;;11.30;5.10;;;9.70;91.10;;;;;;4912205;29;20208;-94
2023/03/31 04:53:52;;;;;;;10.47;5.40;;;9.70;96.50;;;;;;4901665;29;20202;-94
2023/03/31 04:56:19;;;;;;;14.03;5.00;;;9.70;50.50;;;;;;4904407;29;20206;-93
2023/03/31 04:58:46;;;;;;;13.03;5.23;;;9.70;52.60;;;;;;4908867;29;20669;-95
2023/03/31 05:01:16;;;;;;;14.23;5.70;;;9.60;99.90;;;;;;4909084;29;20198;-95
2023/03/31 05:03:43;;;;;;;10.77;5.33;;;9.70;99.90;;;;;;4904237;29;20204;-93
2023/03/31 05:06:10;;;;;;;9.70;5.00;;;9.70;99.90;;;;;;4912013;29;20308;-94
2023/03/31 05:08:38;;;;;;;14.40;5.17;;;9.70;1.00;;;;;;4903523;29;20290;-95
2023/03/31 05:11:05;;;;;;;13.60;5.13;;;9.70;1.00;;;;;;4904095;29;20289;-95
2023/03/31 05:13:32;;;;;;;12.07;4.67;;;9.70;1.00;;;;;;4904655;29;20198;-95
2023/03/31 05:16:05;;;;;;;12.07;4.87;;;9.60;1.00;;;;;;4906067;29;20199;-95
2023/03/31 05:18:32;;;;;;;13.00;4.80;;;9.60;1.00;;;;;;4909975;29;20204;-95
2023/03/31 05:21:09;;;;;;;12.03;5.47;;;9.60;62.60;;;;;;4914917;29;20675;-92
2023/03/31 05:23:35;;;;;;;7.83;4.47;;;9.70;99.90;;;;;;4911593;29;20213;-92
2023/03/31 05:26:04;;;;;;;8.53;4.10;;;9.80;99.90;;;;;;4903830;29;20694;-93
2023/03/31 05:28:31;;;;;;;11.40;4.83;;;9.90;62.90;;;;;;4903578;29;20217;-93
2023/03/31 05:31:00;;;;;;;7.77;4.30;;;10.00;1.00;;;;;;4899416;29;20202;-93
2023/03/31 05:33:27;;;;;;;10.00;4.43;;;10.10;1.00;;;;;;4902116;29;20230;-93
2023/03/31 05:35:54;;;;;;;12.83;5.50;;;10.20;1.00;;;;;;4900673;29;20206;-93
2023/03/31 05:38:21;;;;;;;8.80;5.80;;;10.30;1.00;;;;;;4903754;29;20199;-92
2023/03/31 05:40:48;;;;;;;6.80;4.30;;;10.30;1.00;;;;;;4912391;29;20209;-93
2023/03/31 05:43:16;;;;;;;9.27;4.10;;;10.40;1.00;;;;;;4918845;29;20554;-92
2023/03/31 05:45:43;;;;;;;11.90;4.37;;;10.40;1.00;;;;;;4910000;29;20225;-92
2023/03/31 05:48:10;;;;;;;13.20;4.80;;;10.50;99.90;;;;;;4918042;29;20203;-93
2023/03/31 05:50:36;;;;;;;7.73;4.20;;;10.50;99.90;;;;;;4899866;29;20208;-93
2023/03/31 05:53:03;;;;;;;12.03;5.93;;;10.50;99.90;;;;;;4899595;29;20205;-92
2023/03/31 05:55:30;;;;;;;17.50;8.73;;;10.60;99.90;;;;;;4906216;29;20595;-93
2023/03/31 05:57:57;;;;;;;12.63;6.87;;;10.60;99.90;;;;;;4918464;29;20205;-91
2023/03/31 06:00:25;;;;;;;13.67;7.03;;;10.70;99.90;;;;;;4918749;29;20203;-92
2023/03/31 06:02:52;;;;;;;22.60;8.97;;;10.70;99.90;;;;;;4917045;29;20199;-92
2023/03/31 06:05:19;;;;;;;19.60;10.93;;;10.80;99.90;;;;;;4912453;29;20225;-92
2023/03/31 06:07:46;;;;;;;21.33;9.70;;;10.80;99.90;;;;;;4915956;29;20233;-92
2023/03/31 06:10:12;;;;;;;20.63;8.70;;;11.00;99.90;;;;;;4898914;29;20207;-92
2023/03/31 06:12:39;;;;;;;21.10;8.67;;;11.10;99.90;;;;;;4893547;29;20209;-93
2023/03/31 06:15:07;;;;;;;26.57;9.90;;;11.20;99.90;;;;;;4897877;29;20212;-92
2023/03/31 06:17:35;;;;;;;19.63;8.97;;;11.30;1.00;;;;;;4899533;29;20716;-92
2023/03/31 06:20:04;;;;;;;14.00;5.90;;;11.40;1.00;;;;;;4896308;29;20212;-93
2023/03/31 06:22:31;;;;;;;11.07;4.87;;;11.40;1.00;;;;;;4896463;29;20211;-93
2023/03/31 06:24:58;;;;;;;14.83;6.33;;;11.40;1.00;;;;;;4899268;29;20230;-92
2023/03/31 06:27:25;;;;;;;15.37;5.70;;;11.40;1.00;;;;;;4881309;29;20203;-93
2023/03/31 06:29:51;;;;;;;14.43;6.00;;;11.50;1.00;;;;;;4896194;29;20201;-93
2023/03/31 06:32:18;;;;;;;11.20;5.60;;;11.60;1.00;;;;;;4899257;29;20232;-93
2023/03/31 06:34:46;;;;;;;14.57;5.43;;;11.60;1.00;;;;;;4899217;29;20213;-92
2023/03/31 06:37:13;;;;;;;8.80;5.57;;;11.70;1.00;;;;;;4883809;29;20210;-92
2023/03/31 06:39:40;;;;;;;14.47;6.00;;;11.80;1.00;;;;;;4899804;29;20215;-93
2023/03/31 06:42:07;;;;;;;9.97;4.20;;;12.00;1.00;;;;;;4897319;29;20210;-93
2023/03/31 06:44:33;;;;;;;13.63;6.23;;;12.20;1.00;;;;;;4894962;29;20205;-92
2023/03/31 06:47:00;;;;;;;20.80;8.80;;;12.40;1.00;;;;;;4902666;29;20225;-92
2023/03/31 06:49:27;;;;;;;18.93;8.60;;;12.70;1.00;;;;;;4907956;29;20291;-94
2023/03/31 06:51:55;;;;;;;16.07;7.20;;;12.90;99.90;;;;;;4902659;29;20199;-92
2023/03/31 06:54:22;;;;;;;13.50;7.17;;;13.10;99.90;;;;;;4902826;29;20583;-92
2023/03/31 06:56:49;;;;;;;10.90;5.30;;;13.20;59.90;;;;;;4902811;29;20204;-92
2023/03/31 06:59:15;;;;;;;14.20;6.87;;;13.20;1.00;;;;;;4911830;29;20293;-91
2023/03/31 07:01:44;;;;;;;16.67;8.40;;;13.10;1.00;;;;;;4905371;29;20209;-92
2023/03/31 07:04:11;;;;;;;15.10;6.93;;;13.00;1.00;;;;;;4902975;29;20204;-93
2023/03/31 07:06:38;;;;;;;14.00;6.80;;;13.00;1.00;;;;;;4906340;29;20233;-93
2023/03/31 07:09:06;;;;;;;14.23;7.27;;;13.10;1.00;;;;;;4904834;29;20204;-93
2023/03/31 07:11:33;;;;;;;18.97;8.93;;;13.10;1.00;;;;;;4893203;29;20195;-93
2023/03/31 07:13:59;;;;;;;14.63;6.43;;;13.10;99.90;;;;;;4902745;29;20545;-92
2023/03/31 07:16:26;;;;;;;12.40;7.10;;;13.00;99.90;;;;;;4902859;29;20227;-93
2023/03/31 07:18:58;;;;;;;15.43;8.97;;;12.90;99.90;;;;;;4902412;29;20213;-93
2023/03/31 07:21:25;;;;;;;12.23;6.47;;;12.90;99.90;;;;;;4900089;29;20588;-93
2023/03/31 07:23:52;;;;;;;15.00;8.97;;;13.00;99.90;;;;;;4901959;29;20560;-93
2023/03/31 07:26:20;;;;;;;17.80;11.53;;;13.10;99.90;;;;;;4901933;29;20224;-93
2023/03/31 07:28:47;;;;;;;13.43;8.73;;;13.20;99.90;;;;;;4905917;29;20211;-93
2023/03/31 07:31:14;;;;;;;19.27;11.10;;;13.30;99.90;;;;;;4891728;29;20209;-94
2023/03/31 07:33:41;;;;;;;16.27;8.80;;;13.50;99.90;;;;;;4901727;29;20302;-94
2023/03/31 07:36:09;;;;;;;13.63;7.50;;;13.60;1.00;;;;;;4898641;29;20222;-93
2023/03/31 07:38:36;;;;;;;9.83;5.87;;;13.80;1.00;;;;;;4893271;29;20209;-93
2023/03/31 07:41:03;;;;;;;9.13;4.97;;;14.00;1.00;;;;;;4890132;29;20210;-93
2023/03/31 07:43:31;;;;;;;10.97;4.83;;;14.10;99.90;;;;;;4905890;29;20209;-93
2023/03/31 07:45:58;;;;;;;9.82;5.82;;;14.20;99.90;;;;;;4901653;29;20228;-94
2023/03/31 07:48:27;;;;;;;13.90;8.50;;;14.30;99.90;;;;;;4901041;29;20207;-91
2023/03/31 07:50:54;;;;;;;8.60;4.95;;;14.50;1.00;;;;;;4905232;29;20206;-91
2023/03/31 07:53:21;;;;;;;8.27;4.93;;;14.40;1.00;;;;;;4900853;29;20209;-91
2023/03/31 07:55:48;;;;;;;10.00;5.00;;;14.40;1.00;;;;;;4910114;29;20586;-92
2023/03/31 07:58:15;;;;;;;12.25;6.70;;;14.40;99.90;;;;;;4901394;29;20300;-92
2023/03/31 08:00:43;;;;;;;26.47;10.80;;;14.30;99.90;;;;;;4901755;29;20210;-91
2023/03/31 08:03:10;;;;;;;20.02;9.20;;;14.30;99.90;;;;;;4901471;29;20206;-92
2023/03/31 08:05:37;;;;;;;11.67;5.00;;;14.40;99.90;;;;;;4901366;29;20608;-91
2023/03/31 08:08:04;;;;;;;7.07;4.70;;;14.50;99.90;;;;;;4889515;29;20212;-91
2023/03/31 08:10:30;;;;;;;10.98;5.35;;;14.60;1.00;;;;;;4901070;29;20218;-92
2023/03/31 08:12:57;;;;;;;10.60;5.38;;;14.70;1.00;;;;;;4901285;29;20207;-92
2023/03/31 08:15:24;;;;;;;10.77;5.20;;;14.70;1.00;;;;;;4885216;29;20270;-92
2023/03/31 08:17:52;;;;;;;10.43;5.85;;;14.80;1.00;;;;;;4900261;29;20265;-91
2023/03/31 08:20:19;;;;;;;10.57;3.70;;;14.80;1.00;;;;;;4902677;29;20219;-91
2023/03/31 08:22:46;;;;;;;9.98;4.20;;;14.90;1.00;;;;;;4909783;29;20208;-91
2023/03/31 08:25:13;;;;;;;5.38;3.30;;;15.00;1.00;;;;;;4898960;29;20206;-91
2023/03/31 08:27:41;;;;;;;7.25;4.00;;;15.20;99.90;;;;;;4900795;29;20246;-91
2023/03/31 08:30:10;;;;;;;8.95;4.60;;;15.40;99.90;;;;;;4900980;29;20217;-90
2023/03/31 08:32:37;;;;;;;10.95;5.65;;;15.60;1.00;;;;;;4895628;29;20225;-90
2023/03/31 08:35:07;;;;;;;5.40;3.22;;;15.60;1.00;;;;;;4898577;29;20207;-90
2023/03/31 08:37:34;;;;;;;9.63;4.82;;;15.70;1.00;;;;;;4887379;29;20722;-90
2023/03/31 08:40:04;;;;;;;10.40;5.45;;;15.80;1.00;;;;;;4900700;29;20304;-91
2023/03/31 08:42:38;;;;;;;9.65;6.32;;;15.90;99.90;;;;;;4900564;29;20212;-90
2023/03/31 08:45:10;;;;;;;6.03;3.35;;;15.80;99.90;;;;;;4900277;29;20191;-91
2023/03/31 08:47:38;;;;;;;6.32;2.78;;;15.90;99.90;;;;;;4882514;29;20590;-91
2023/03/31 08:50:13;;;;;;;6.43;3.50;;;16.00;99.90;;;;;;4899917;29;20209;-92
2023/03/31 08:52:43;;;;;;;6.07;4.72;;;15.90;99.90;;;;;;4900574;29;20223;-92
2023/03/31 08:55:20;;;;;;;6.93;4.40;;;15.80;99.90;;;;;;4901052;29;20207;-92
2023/03/31 08:57:55;;;;;;;7.20;4.15;;;15.70;99.90;;;;;;4900651;29;20294;-93
2023/03/31 09:00:22;;;;;;;7.07;3.40;;;15.60;99.90;;;;;;4900547;29;20673;-92
2023/03/31 09:02:52;;;;;;;7.35;3.33;;;15.60;1.00;;;;;;4900089;29;20215;-92
2023/03/31 09:05:40;;;;;;;5.82;4.05;;;15.60;1.00;;;;;;4900391;29;20230;-91
2023/03/31 09:08:14;;;;;;;7.38;3.72;;;15.70;99.90;;;;;;4900703;29;20201;-92
2023/03/31 09:10:51;;;;;;;7.28;4.03;;;15.70;99.90;;;;;;4905434;29;20207;-92
2023/03/31 09:13:37;;;;;;;7.57;3.58;;;15.70;1.00;;;;;;4910539;29;20190;-92
2023/03/31 09:16:12;;;;;;;5.38;3.28;;;15.80;99.90;;;;;;4900241;29;20661;-92
2023/03/31 09:18:45;;;;;;;6.85;4.45;;;16.00;1.00;;;;;;4900369;29;20201;-92
2023/03/31 09:21:18;;;;;;;9.35;5.15;;;16.20;1.00;;;;;;4899905;29;20241;-92
2023/03/31 09:23:48;;;;;;;20.88;5.68;;;16.40;1.00;;;;;;4900021;29;20248;-92
2023/03/31 09:26:25;;;;;;;9.40;4.65;;;16.60;1.00;;;;;;4915999;29;20230;-91
2023/03/31 09:28:56;;;;;;;9.23;4.05;;;16.70;1.00;;;;;;4920592;29;20213;-91
2023/03/31 09:31:24;;;;;;;10.15;4.20;;;16.90;1.00;;;;;;4919294;29;20223;-92
2023/03/31 09:33:57;;;;;;;7.82;4.40;;;17.00;1.00;;;;;;4919069;29;20237;-92
2023/03/31 09:36:25;;;;;;;8.00;5.00;;;17.10;1.00;;;;;;4906607;29;20202;-91
2023/03/31 09:38:52;;;;;;;9.15;5.68;;;17.30;99.90;;;;;;4901474;29;20194;-91
2023/03/31 09:41:20;;;;;;;12.25;4.07;;;17.30;99.90;;;;;;4916101;29;20198;-91
2023/03/31 09:43:48;;;;;;;11.38;3.90;;;17.40;99.90;;;;;;4910489;29;20233;-91
2023/03/31 09:46:18;;;;;;;10.00;3.40;;;17.50;99.90;;;;;;4906911;29;20249;-91
2023/03/31 09:48:54;;;;;;;16.35;6.13;;;17.60;99.90;;;;;;4903746;29;20217;-92
2023/03/31 09:51:29;;;;;;;6.43;3.97;;;17.80;99.90;;;;;;4918375;29;20297;-91
2023/03/31 09:54:01;;;;;;;9.52;4.65;;;17.90;99.90;;;;;;4918358;29;20280;-90
2023/03/31 09:56:47;;;;;;;11.07;4.13;;;18.00;99.90;;;;;;4918613;29;20190;-91
2023/03/31 09:59:16;;;;;;;8.93;3.63;;;17.90;99.90;;;;;;4880668;29;20230;-91
2023/03/31 10:01:45;;;;;;;9.15;3.40;;;17.60;99.90;;;;;;4904414;29;20718;-91
2023/03/31 10:04:19;;;;;;;24.92;5.40;;;17.40;99.90;;;;;;4918192;29;20604;-91
2023/03/31 10:06:48;;;;;;;7.00;3.50;;;17.10;99.90;;;;;;4918386;29;20201;-91
2023/03/31 10:09:16;;;;;;;5.90;3.90;;;17.00;99.90;;;;;;4915307;29;22453;-91
2023/03/31 10:11:57;;;;;;;8.02;3.63;;;17.00;99.90;;;;;;4899132;29;20202;-91
2023/03/31 10:14:33;;;;;;;8.80;4.20;;;17.20;99.90;;;;;;4879629;29;20205;-91
2023/03/31 10:17:04;;;;;;;17.23;8.80;;;17.40;99.90;;;;;;4896659;29;20194;-91
2023/03/31 10:19:33;;;;;;;24.42;13.93;;;17.60;99.90;;;;;;4910933;29;20209;-91
2023/03/31 10:22:03;;;;;;;26.27;16.33;;;17.70;99.90;;;;;;4911485;29;20285;-91
2023/03/31 10:24:38;;;;;;;11.35;6.72;;;17.80;99.90;;;;;;4911549;29;20759;-90
2023/03/31 10:27:07;;;;;;;11.27;5.35;;;17.90;99.90;;;;;;4915398;29;20627;-91
2023/03/31 10:29:34;;;;;;;8.10;4.10;;;18.20;99.90;;;;;;4917791;29;20669;-91
2023/03/31 10:32:09;;;;;;;5.03;3.08;;;18.30;99.90;;;;;;4917947;29;20212;-91
2023/03/31 10:34:41;;;;;;;8.25;3.72;;;18.40;99.90;;;;;;4903641;29;20202;-91
2023/03/31 10:37:13;;;;;;;11.43;3.63;;;18.50;99.90;;;;;;4899198;29;20203;-91
2023/03/31 10:39:40;;;;;;;7.55;3.33;;;18.50;99.90;;;;;;4899411;29;20200;-91
2023/03/31 10:42:07;;;;;;;9.25;4.63;;;18.60;99.90;;;;;;4899959;29;20201;-91
2023/03/31 10:44:36;;;;;;;4.68;2.65;;;18.80;99.90;;;;;;4899080;29;20207;-91
2023/03/31 10:47:06;;;;;;;8.23;4.03;;;19.10;99.90;;;;;;4898419;29;20591;-91
2023/03/31 10:49:38;;;;;;;6.05;3.00;;;19.20;99.90;;;;;;4898747;29;20198;-91
2023/03/31 10:52:17;;;;;;;5.72;2.83;;;19.20;99.90;;;;;;4907165;29;20205;-92
2023/03/31 10:54:49;;;;;;;8.68;3.72;;;19.00;99.90;;;;;;4917864;29;20198;-91
2023/03/31 10:57:17;;;;;;;7.30;3.13;;;18.90;99.90;;;;;;4917833;29;20202;-91
2023/03/31 11:00:04;;;;;;;8.43;3.80;;;19.00;99.90;;;;;;4917672;29;20193;-91
2023/03/31 11:03:01;;;;;;;8.70;2.92;;;19.00;99.90;;;;;;4873296;29;20259;-91
2023/03/31 11:05:33;;;;;;;9.25;3.20;;;19.10;99.90;;;;;;4880241;29;20190;-91
2023/03/31 11:08:15;;;;;;;6.32;2.95;;;19.30;99.90;;;;;;4898586;29;20218;-91
2023/03/31 11:11:02;;;;;;;18.50;3.55;;;19.50;99.90;;;;;;4898398;29;20206;-91
2023/03/31 11:13:35;;;;;;;6.72;2.42;;;19.70;99.90;;;;;;4893520;29;20589;-92
2023/03/31 11:16:11;;;;;;;5.85;2.83;;;19.70;99.90;;;;;;4895101;29;20207;-91
2023/03/31 11:18:54;;;;;;;5.53;3.00;;;19.90;99.90;;;;;;4898383;29;20212;-92
2023/03/31 11:21:27;;;;;;;6.78;2.63;;;20.20;99.90;;;;;;4892869;29;20210;-92
2023/03/31 11:24:05;;;;;;;9.75;2.42;;;20.60;99.90;;;;;;4898452;29;20202;-92
2023/03/31 11:26:42;;;;;;;7.63;2.63;;;21.00;99.90;;;;;;4900815;29;20226;-91
2023/03/31 11:29:21;;;;;;;6.05;2.40;;;21.20;99.90;;;;;;4902230;29;20195;-91
2023/03/31 11:31:56;;;;;;;8.27;4.75;;;21.30;99.90;;;;;;4906376;29;20585;-91
2023/03/31 11:34:46;;;;;;;11.52;3.95;;;21.20;99.90;;;;;;4901938;29;20210;-92
2023/03/31 11:37:34;;;;;;;7.10;2.70;;;21.00;99.90;;;;;;4901501;29;20250;-91
2023/03/31 11:40:17;;;;;;;5.95;2.40;;;20.70;96.80;;;;;;4896892;29;20701;-90
2023/03/31 11:42:50;;;;;;;4.90;2.55;;;20.30;96.40;;;;;;4906003;29;20577;-90
2023/03/31 11:45:19;;;;;;;8.68;2.78;;;20.00;96.20;;;;;;4906142;29;20291;-90
2023/03/31 11:47:50;;;;;;;5.03;2.28;;;19.90;98.70;;;;;;4900577;29;20218;-90
2023/03/31 11:50:22;;;;;;;7.60;2.80;;;19.70;97.90;;;;;;4889304;29;20674;-91
2023/03/31 11:52:57;;;;;;;5.45;2.17;;;19.40;99.20;;;;;;4887876;29;20210;-90
2023/03/31 11:55:28;;;;;;;7.68;3.60;;;19.10;99.90;;;;;;4901313;29;20213;-91
2023/03/31 11:58:02;;;;;;;8.40;4.82;;;18.90;99.90;;;;;;4891478;29;20204;-91
2023/03/31 12:00:32;;;;;;;8.77;5.05;;;18.80;99.90;;;;;;4895889;29;20212;-91
2023/03/31 12:03:07;;;;;;;11.10;5.57;;;18.80;99.90;;;;;;4894212;29;20610;-91
2023/03/31 12:05:37;;;;;;;8.50;3.20;;;18.60;99.90;;;;;;4910507;29;20614;-91
2023/03/31 12:08:07;;;;;;;7.45;3.30;;;18.40;99.90;;;;;;4901686;29;20226;-91
2023/03/31 12:10:37;;;;;;;5.38;1.90;;;18.10;99.90;;;;;;4888667;29;20559;-92
2023/03/31 12:13:18;;;;;;;3.67;2.20;;;17.70;99.90;;;;;;4901097;29;20206;-93
2023/03/31 12:15:51;;;;;;;7.22;5.60;;;17.30;99.90;;;;;;4902142;29;20210;-92
2023/03/31 12:18:22;;;;;;;15.63;10.18;;;17.00;99.90;;;;;;4901807;29;20198;-92
2023/03/31 12:20:53;;;;;;;22.73;15.57;;;16.80;99.90;;;;;;4908491;29;20230;-93
2023/03/31 12:23:23;;;;;;;16.58;10.60;;;16.60;99.90;;;;;;4900811;29;20206;-92
2023/03/31 12:25:55;;;;;;;6.57;2.65;;;16.40;99.90;;;;;;4910673;29;20690;-92
2023/03/31 12:28:26;;;;;;;9.00;3.83;;;16.40;99.90;;;;;;4901488;29;20229;-92
2023/03/31 12:30:54;;;;;;;8.27;3.42;;;16.50;99.90;;;;;;4891120;29;20623;-92
2023/03/31 12:33:27;;;;;;;5.13;2.50;;;16.60;99.90;;;;;;4900455;29;20250;-92
2023/03/31 12:36:07;;;;;;;6.18;2.63;;;16.70;99.90;;;;;;4906100;29;20570;-91
2023/03/31 12:38:55;;;;;;;5.57;2.63;;;16.80;99.90;;;;;;4909180;29;20283;-91
2023/03/31 12:41:29;;;;;;;12.02;7.95;;;17.00;99.90;;;;;;4889631;29;20213;-92
2023/03/31 12:44:13;;;;;;;10.95;5.10;;;17.10;99.90;;;;;;4887505;29;20207;-92
2023/03/31 12:47:14;;;;;;;9.98;4.75;;;17.30;99.90;;;;;;4900870;29;20210;-92
2023/03/31 12:49:55;;;;;;;5.22;3.30;;;17.50;99.90;;;;;;4861854;29;20211;-92
2023/03/31 12:52:28;;;;;;;6.05;1.60;;;17.80;99.90;;;;;;4870954;29;20203;-93
2023/03/31 12:55:30;;;;;;;3.15;1.38;;;18.00;99.90;;;;;;4872912;29;20294;-91
2023/03/31 12:58:32;;;;;;;4.68;1.60;;;18.00;99.90;;;;;;4861548;29;20313;-92
2023/03/31 13:01:06;;;;;;;4.75;2.03;;;18.00;99.90;;;;;;4862771;29;20230;-91
2023/03/31 13:03:41;;;;;;;5.18;1.80;;;18.10;99.90;;;;;;4879452;29;20234;-91
2023/03/31 13:06:11;;;;;;;3.60;2.00;;;18.20;99.90;;;;;;4877502;29;20305;-91
2023/03/31 13:08:52;;;;;;;5.28;1.80;;;18.30;99.90;;;;;;4861143;29;20230;-92
2023/03/31 13:11:21;;;;;;;5.32;1.98;;;18.20;99.90;;;;;;4861349;29;20208;-93
2023/03/31 13:13:59;;;;;;;3.60;1.95;;;18.10;99.90;;;;;;4861140;29;20200;-92
2023/03/31 13:16:27;;;;;;;5.10;2.20;;;18.10;99.90;;;;;;4868942;29;20191;-92
2023/03/31 13:18:54;;;;;;;4.53;1.92;;;17.90;99.90;;;;;;4871670;29;20658;-92
2023/03/31 13:21:22;;;;;;;4.85;1.80;;;17.90;99.90;;;;;;4879485;29;20213;-93
2023/03/31 13:23:49;;;;;;;4.70;2.30;;;17.70;99.90;;;;;;4879880;29;20199;-93
2023/03/31 13:26:41;;;;;;;4.88;2.42;;;17.50;99.90;;;;;;4899216;29;20726;-92
2023/03/31 13:29:23;;;;;;;4.85;2.28;;;17.30;99.90;;;;;;4910040;29;20229;-93
2023/03/31 13:32:20;;;;;;;4.53;2.40;;;17.20;99.90;;;;;;4919171;29;20194;-93
2023/03/31 13:34:56;;;;;;;4.43;2.15;;;17.20;99.90;;;;;;4905148;29;20199;-93
2023/03/31 13:37:48;;;;;;;6.05;2.00;;;17.20;99.90;;;;;;4901923;29;20186;-93
2023/03/31 13:40:45;;;;;;;5.53;2.13;;;17.10;99.90;;;;;;4900339;29;20187;-94
2023/03/31 13:43:53;;;;;;;3.28;2.00;;;17.00;99.90;;;;;;4900104;29;20186;-93
2023/03/31 13:46:46;;;;;;;5.88;2.25;;;16.80;99.90;;;;;;4885627;29;20216;-94
2023/03/31 13:49:41;;;;;;;5.13;2.25;;;16.60;99.90;;;;;;4909460;29;20218;-94
2023/03/31 13:52:10;;;;;;;3.40;2.10;;;16.40;99.90;;;;;;4914783;29;20201;-95
2023/03/31 13:55:08;;;;;;;4.22;2.17;;;16.30;1.00;;;;;;4919022;29;20268;-93
2023/03/31 13:58:03;;;;;;;5.90;2.65;;;16.10;1.00;;;;;;4919930;29;20209;-94
2023/03/31 14:00:40;;;;;;;4.13;2.70;;;15.90;1.00;;;;;;4881078;29;20771;-94
2023/03/31 14:03:37;;;;;;;5.82;2.45;;;15.80;1.00;;;;;;4882097;29;20190;-94
2023/03/31 14:06:11;;;;;;;5.72;2.55;;;15.60;1.00;;;;;;4911268;29;20201;-94
2023/03/31 14:08:47;;;;;;;4.97;2.42;;;15.50;1.00;;;;;;4909141;29;20214;-94
2023/03/31 14:11:21;;;;;;;5.68;2.72;;;15.30;1.00;;;;;;4892680;29;20195;-94
2023/03/31 14:13:59;;;;;;;4.05;3.00;;;15.10;1.00;;;;;;4899776;29;20269;-94
2023/03/31 14:16:27;;;;;;;5.97;3.00;;;15.00;14.30;;;;;;4899937;29;20194;-94
2023/03/31 14:19:06;;;;;;;6.85;2.83;;;14.80;99.90;;;;;;4881272;29;20209;-94
2023/03/31 14:21:40;;;;;;;5.47;3.25;;;14.60;99.90;;;;;;4889013;29;20187;-93
2023/03/31 14:24:15;;;;;;;6.45;3.10;;;14.50;1.00;;;;;;4918522;29;20200;-93
2023/03/31 14:26:53;;;;;;;6.78;3.17;;;14.40;1.00;;;;;;4918385;29;20201;-92
2023/03/31 14:29:26;;;;;;;5.93;3.00;;;14.30;1.00;;;;;;4918168;29;20780;-92
2023/03/31 14:31:58;;;;;;;5.93;3.10;;;14.20;64.20;;;;;;4918299;29;20193;-91
2023/03/31 14:34:41;;;;;;;6.70;3.63;;;14.10;99.90;;;;;;4912457;29;20213;-93
2023/03/31 14:37:14;;;;;;;7.30;3.73;;;14.00;99.90;;;;;;4899752;29;20283;-93
2023/03/31 14:39:44;;;;;;;5.03;3.57;;;14.00;1.00;;;;;;4899043;29;20683;-93
2023/03/31 14:42:13;;;;;;;5.73;3.43;;;14.00;1.00;;;;;;4908535;29;20206;-92
2023/03/31 14:44:43;;;;;;;7.40;3.50;;;14.10;1.00;;;;;;4914486;29;20211;-93
2023/03/31 14:47:14;;;;;;;9.57;3.57;;;14.10;1.00;;;;;;4899530;29;20666;-93
2023/03/31 14:49:41;;;;;;;9.57;6.70;;;14.20;1.00;;;;;;4899242;29;20713;-91
2023/03/31 14:52:16;;;;;;;18.83;12.17;;;14.30;1.00;;;;;;4899227;29;20210;-93
2023/03/31 14:54:46;;;;;;;29.97;16.50;;;14.40;1.00;;;;;;4898833;29;20191;-92
2023/03/31 14:57:15;;;;;;;16.27;8.83;;;14.60;1.00;;;;;;4899247;29;20216;-92
2023/03/31 14:59:43;;;;;;;13.13;9.23;;;14.80;1.00;;;;;;4899441;29;20197;-92
2023/03/31 15:02:15;;;;;;;8.98;5.90;;;14.90;99.90;;;;;;4902778;29;20215;-93
2023/03/31 15:04:46;;;;;;;6.57;4.32;;;15.00;99.90;;;;;;4909410;29;20206;-92
2023/03/31 15:07:16;;;;;;;7.32;4.30;;;15.10;1.00;;;;;;4912050;29;20193;-93
2023/03/31 15:09:49;;;;;;;7.03;4.22;;;15.00;1.00;;;;;;4910290;29;20700;-93
2023/03/31 15:12:19;;;;;;;7.05;4.97;;;15.00;1.00;;;;;;4920037;29;20582;-93
2023/03/31 15:14:48;;;;;;;8.38;4.85;;;14.90;1.00;;;;;;4921623;29;20197;-93
2023/03/31 15:17:21;;;;;;;4.00;2.35;;;14.80;1.00;;;;;;4917753;29;20348;-93
2023/03/31 15:19:54;;;;;;;6.03;3.38;;;14.60;99.90;;;;;;4921838;29;20185;-94
2023/03/31 15:22:25;;;;;;;8.32;3.22;;;14.30;99.90;;;;;;4921562;29;20699;-94
2023/03/31 15:24:52;;;;;;;10.15;3.33;;;14.00;1.00;;;;;;4903332;29;20204;-94
2023/03/31 15:27:30;;;;;;;6.93;2.70;;;13.60;1.00;;;;;;4902464;29;20292;-94
2023/03/31 15:30:00;;;;;;;6.33;2.30;;;13.30;66.00;;;;;;4902508;29;20572;-93
2023/03/31 15:32:28;;;;;;;12.23;7.00;;;13.00;99.90;;;;;;4897241;29;20240;-92
2023/03/31 15:34:56;;;;;;;14.20;7.13;;;12.80;1.00;;;;;;4902084;29;20626;-92
2023/03/31 15:37:26;;;;;;;5.10;3.80;;;12.70;1.00;;;;;;4901544;29;20817;-93
2023/03/31 15:39:56;;;;;;;10.93;5.67;;;12.60;99.90;;;;;;4895742;29;20271;-90
2023/03/31 15:42:24;;;;;;;10.27;4.83;;;12.50;1.00;;;;;;4901999;29;20217;-92
2023/03/31 15:44:55;;;;;;;6.00;3.00;;;12.50;1.00;;;;;;4914374;29;20304;-91
2023/03/31 15:47:25;;;;;;;11.00;5.70;;;12.40;1.00;;;;;;4905262;29;20227;-92
2023/03/31 15:49:54;;;;;;;8.87;5.10;;;12.40;29.10;;;;;;4901633;29;20235;-92
2023/03/31 15:52:33;;;;;;;4.77;3.37;;;12.50;99.90;;;;;;4901625;29;20285;-92
2023/03/31 15:55:00;;;;;;;9.97;6.30;;;12.50;99.90;;;;;;4880764;29;20199;-92
2023/03/31 15:57:35;;;;;;;7.80;5.30;;;12.60;99.90;;;;;;4898009;29;20674;-92
2023/03/31 16:00:06;;;;;;;8.57;4.37;;;12.50;99.90;;;;;;4884771;29;20288;-91
2023/03/31 16:02:40;;;;;;;8.47;6.07;;;12.60;99.90;;;;;;4894811;29;20719;-92
2023/03/31 16:05:21;;;;;;;17.03;11.37;;;12.60;1.00;;;;;;4905424;29;20208;-92
2023/03/31 16:07:49;;;;;;;17.43;10.90;;;12.60;1.00;;;;;;4888120;29;20665;-91
2023/03/31 16:10:22;;;;;;;12.33;9.03;;;12.60;1.00;;;;;;4908206;29;20255;-91
2023/03/31 16:12:52;;;;;;;14.23;9.27;;;12.60;1.00;;;;;;4894520;29;20299;-92
2023/03/31 16:15:22;;;;;;;19.77;11.53;;;12.50;1.00;;;;;;4891928;29;20203;-92
2023/03/31 16:17:53;;;;;;;25.20;15.90;;;12.50;1.00;;;;;;4897483;29;20212;-92
2023/03/31 16:20:22;;;;;;;20.97;11.87;;;12.50;19.80;;;;;;4904057;29;20698;-92
2023/03/31 16:22:54;;;;;;;14.47;7.60;;;12.50;87.20;;;;;;4913603;29;20203;-91
2023/03/31 16:25:22;;;;;;;13.77;7.30;;;12.50;39.60;;;;;;4903710;29;20208;-92
2023/03/31 16:27:54;;;;;;;30.20;16.37;;;12.40;86.70;;;;;;4892287;29;20228;-92
2023/03/31 16:30:33;;;;;;;26.63;17.13;;;12.40;99.90;;;;;;4895294;29;20213;-92
2023/03/31 16:33:01;;;;;;;9.43;7.03;;;12.40;99.90;;;;;;4900982;29;20708;-93
2023/03/31 16:35:33;;;;;;;9.60;7.50;;;12.40;99.90;;;;;;4895751;29;20279;-92
2023/03/31 16:38:01;;;;;;;14.43;8.83;;;12.40;99.90;;;;;;4901349;29;20204;-93
2023/03/31 16:40:31;;;;;;;15.60;11.20;;;12.40;66.50;;;;;;4875237;29;20784;-91
2023/03/31 16:43:14;;;;;;;16.73;10.97;;;12.40;99.90;;;;;;4882555;29;20300;-92
2023/03/31 16:45:43;;;;;;;14.70;10.03;;;12.40;99.90;;;;;;4880579;29;20214;-92
2023/03/31 16:48:10;;;;;;;11.97;7.90;;;12.40;99.90;;;;;;4882049;29;20214;-92
2023/03/31 16:50:37;;;;;;;10.80;7.63;;;12.40;99.90;;;;;;4882453;29;20203;-91
2023/03/31 16:53:05;;;;;;;11.43;6.87;;;12.40;1.00;;;;;;4900454;29;20213;-91
2023/03/31 16:55:31;;;;;;;14.60;7.90;;;12.30;53.30;;;;;;4919921;29;20299;-91
2023/03/31 16:58:01;;;;;;;18.77;9.30;;;12.30;1.00;;;;;;4919447;29;20202;-91
2023/03/31 17:00:33;;;;;;;14.57;8.30;;;12.30;77.20;;;;;;4919535;29;20206;-91
2023/03/31 17:03:01;;;;;;;20.37;9.87;;;12.20;91.50;;;;;;4913543;29;20186;-92
2023/03/31 17:05:30;;;;;;;14.50;8.77;;;12.20;75.60;;;;;;4900771;29;20200;-94
2023/03/31 17:07:57;;;;;;;12.67;7.57;;;12.20;99.90;;;;;;4900763;29;20287;-93
2023/03/31 17:10:25;;;;;;;13.97;8.80;;;12.20;99.90;;;;;;4919142;29;20682;-92
2023/03/31 17:12:52;;;;;;;16.70;10.50;;;12.10;99.90;;;;;;4919753;29;20198;-92
2023/03/31 17:15:19;;;;;;;14.83;8.53;;;12.10;99.90;;;;;;4919277;29;20671;-92
2023/03/31 17:17:46;;;;;;;9.70;7.33;;;12.10;99.90;;;;;;4905848;29;20204;-92
2023/03/31 17:20:13;;;;;;;12.00;7.30;;;12.00;99.90;;;;;;4898655;29;20214;-91
2023/03/31 17:22:40;;;;;;;12.10;7.30;;;12.00;99.90;;;;;;4899958;29;20212;-92
2023/03/31 17:25:07;;;;;;;17.63;8.87;;;12.00;1.00;;;;;;4900208;29;20201;-92
2023/03/31 17:27:36;;;;;;;15.10;9.13;;;12.00;1.00;;;;;;4899771;29;20206;-92
2023/03/31 17:30:04;;;;;;;15.63;9.53;;;12.00;1.00;;;;;;4900306;29;20223;-92
2023/03/31 17:32:31;;;;;;;17.93;9.83;;;12.00;1.00;;;;;;4898563;29;20725;-92
2023/03/31 17:34:58;;;;;;;67.83;34.77;;;12.00;1.00;;;;;;4919574;29;20296;-93
2023/03/31 17:37:26;;;;;;;29.13;17.10;;;12.00;1.00;;;;;;4909392;29;20208;-93
2023/03/31 17:39:52;;;;;;;39.80;20.07;;;12.00;1.00;;;;;;4905785;29;20221;-92
2023/03/31 17:42:19;;;;;;;19.60;11.27;;;12.00;1.00;;;;;;4914998;29;20208;-93